Time;durP1;ratioP1;P1;durP2;ratioP2;P2;SDS_P1;SDS_P2;PMS_P1;PMS_P2;Temp;Humidity;BMP_temperature;BMP_pressure;BME280_temperature;BME280_humidity;BME280_pressure;Samples;Min_cycle;Max_cycle;Signal;HPM_P1;HPM_P2
2023/09/27 00:02:20;;;;;;;9.40;6.53;;;;;;;15.04;67.51;96708.34;4986143;28;20185;-68
2023/09/27 00:04:45;;;;;;;7.40;6.60;;;;;;;15.10;67.38;96713.28;4974742;28;20620;-70
2023/09/27 00:07:11;;;;;;;10.70;6.80;;;;;;;15.04;67.49;96708.34;4966520;28;20189;-69
2023/09/27 00:09:37;;;;;;;6.83;6.13;;;;;;;15.12;67.58;96708.75;4966634;28;20209;-67
2023/09/27 00:12:05;;;;;;;12.03;7.87;;;;;;;15.13;67.63;96704.31;4967141;28;20959;-68
2023/09/27 00:14:30;;;;;;;11.27;8.40;;;;;;;15.04;67.85;96703.91;4967121;28;20185;-68
2023/09/27 00:16:56;;;;;;;9.57;6.43;;;;;;;14.90;68.46;96701.19;4966572;28;20448;-69
2023/09/27 00:19:21;;;;;;;9.43;6.30;;;;;;;14.88;68.69;96712.78;4966907;28;20185;-66
2023/09/27 00:21:47;;;;;;;8.10;6.30;;;;;;;14.87;68.89;96700.53;4966939;28;20177;-67
2023/09/27 00:24:12;;;;;;;12.80;7.10;;;;;;;14.89;68.57;96702.13;4966971;28;20617;-68
2023/09/27 00:26:38;;;;;;;7.47;6.77;;;;;;;14.94;68.26;96699.22;4966730;28;20177;-67
2023/09/27 00:29:03;;;;;;;7.53;6.30;;;;;;;14.86;68.68;96690.88;4966789;28;20247;-67
2023/09/27 00:31:28;;;;;;;17.60;8.70;;;;;;;14.87;68.40;96692.59;4966997;28;20209;-66
2023/09/27 00:33:54;;;;;;;9.83;7.50;;;;;;;14.81;68.16;96688.50;4966842;28;20634;-68
2023/09/27 00:36:19;;;;;;;8.90;7.40;;;;;;;14.74;68.35;96687.13;4968988;28;20186;-68
2023/09/27 00:38:44;;;;;;;7.83;7.03;;;;;;;14.62;68.75;96699.22;4970094;28;20542;-66
2023/09/27 00:41:10;;;;;;;8.70;7.67;;;;;;;14.57;68.72;96696.00;4970279;28;20229;-68
2023/09/27 00:43:35;;;;;;;9.13;7.73;;;;;;;14.61;68.17;96697.53;4970196;28;20181;-67
2023/09/27 00:46:03;;;;;;;9.97;7.40;;;;;;;14.55;68.38;96692.56;4970054;28;20178;-68
2023/09/27 00:48:30;;;;;;;8.83;7.53;;;;;;;14.60;68.13;96691.41;4969657;28;20220;-67
2023/09/27 00:50:56;;;;;;;12.13;6.67;;;;;;;14.43;68.62;96694.06;4969948;28;20424;-69
2023/09/27 00:53:24;;;;;;;6.93;6.17;;;;;;;14.42;68.94;96694.19;4969903;28;20427;-68
2023/09/27 00:55:50;;;;;;;8.20;7.07;;;;;;;14.46;68.83;96698.34;4969558;28;20413;-68
2023/09/27 00:58:19;;;;;;;10.50;6.97;;;;;;;14.56;68.21;96699.59;4969797;28;20806;-67
2023/09/27 01:00:46;;;;;;;8.10;6.93;;;;;;;14.50;68.22;96695.44;4970005;28;20444;-68
2023/09/27 01:03:13;;;;;;;7.17;6.40;;;;;;;14.46;68.48;96696.56;4969793;28;20420;-68
2023/09/27 01:05:38;;;;;;;7.60;6.53;;;;;;;14.47;68.19;96686.84;4987601;28;20420;-67
2023/09/27 01:08:05;;;;;;;9.90;6.40;;;;;;;14.46;68.10;96687.78;4989028;28;20509;-68
2023/09/27 01:10:30;;;;;;;7.93;6.80;;;;;;;14.43;68.18;96690.59;4989132;28;20184;-68
2023/09/27 01:12:56;;;;;;;7.40;6.70;;;;;;;14.46;68.35;96685.16;4989341;28;20420;-68
2023/09/27 01:15:21;;;;;;;10.87;7.13;;;;;;;14.45;68.34;96686.91;4989350;28;20173;-69
2023/09/27 01:17:57;;;;;;;10.07;6.30;;;;;;;14.47;67.75;96681.56;4989336;28;20196;-68
2023/09/27 01:20:23;;;;;;;7.00;6.30;;;;;;;14.47;67.74;96682.41;4988925;28;20826;-68
2023/09/27 01:22:55;;;;;;;7.30;5.97;;;;;;;14.45;67.56;96686.91;4988883;28;20795;-66
2023/09/27 01:25:24;;;;;;;8.30;6.40;;;;;;;14.40;67.44;96688.97;4988698;28;20413;-69
2023/09/27 01:27:49;;;;;;;9.90;6.73;;;;;;;14.25;67.96;96680.09;4988576;28;20537;-69
2023/09/27 01:30:14;;;;;;;10.10;6.97;;;;;;;14.17;67.69;96682.28;4988777;28;20915;-69
2023/09/27 01:32:41;;;;;;;11.40;6.50;;;;;;;13.60;69.85;96682.63;4988546;28;20628;-68
2023/09/27 01:35:07;;;;;;;6.77;6.07;;;;;;;13.33;71.33;96701.56;4988570;28;20660;-68
2023/09/27 01:37:33;;;;;;;8.07;7.27;;;;;;;13.14;72.00;96700.75;4988210;28;20470;-68
2023/09/27 01:39:58;;;;;;;8.70;6.70;;;;;;;13.46;70.53;96693.03;4988610;28;20811;-68
2023/09/27 01:42:24;;;;;;;9.90;6.60;;;;;;;13.57;69.96;96688.06;4988508;28;20191;-69
2023/09/27 01:44:49;;;;;;;10.00;6.47;;;;;;;13.54;70.09;96693.50;4988610;28;20645;-67
2023/09/27 01:47:15;;;;;;;10.87;8.03;;;;;;;13.34;70.81;96694.50;4987107;28;20819;-68
2023/09/27 01:49:40;;;;;;;8.13;6.20;;;;;;;13.27;71.08;96695.69;4988070;28;20215;-68
2023/09/27 01:52:06;;;;;;;14.83;7.90;;;;;;;13.32;71.88;96701.63;4988242;28;20255;-69
2023/09/27 01:54:31;;;;;;;36.87;10.53;;;;;;;13.44;71.20;96708.94;4988583;28;20644;-67
2023/09/27 01:56:56;;;;;;;28.40;7.77;;;;;;;13.58;70.44;96707.38;4987798;28;20266;-67
2023/09/27 01:59:22;;;;;;;14.00;6.60;;;;;;;13.64;69.99;96702.66;4987975;28;20199;-69
2023/09/27 02:01:47;;;;;;;11.50;6.23;;;;;;;13.50;70.24;96705.97;4988205;28;20173;-68
2023/09/27 02:04:13;;;;;;;6.97;6.20;;;;;;;13.27;71.95;96706.25;4981500;28;20232;-69
2023/09/27 02:06:39;;;;;;;8.70;6.40;;;;;;;13.26;71.63;96705.41;4968816;28;20324;-68
2023/09/27 02:09:04;;;;;;;7.43;6.27;;;;;;;13.47;70.66;96715.84;4968560;28;20213;-69
2023/09/27 02:11:31;;;;;;;9.23;6.90;;;;;;;13.54;70.67;96717.25;4968729;28;20181;-68
2023/09/27 02:13:56;;;;;;;7.20;6.50;;;;;;;13.56;70.13;96704.84;4970883;28;20223;-68
2023/09/27 02:16:22;;;;;;;10.00;6.87;;;;;;;13.44;70.66;96702.78;4969058;28;20503;-67
2023/09/27 02:18:49;;;;;;;6.97;6.37;;;;;;;13.36;70.84;96695.28;4968838;28;20205;-67
2023/09/27 02:21:14;;;;;;;7.93;6.80;;;;;;;13.16;71.77;96698.88;4968390;28;20300;-68
2023/09/27 02:23:39;;;;;;;6.80;6.20;;;;;;;13.21;71.53;96699.50;4968189;28;20491;-68
2023/09/27 02:26:05;;;;;;;7.53;6.73;;;;;;;13.30;70.83;96707.00;4968355;28;20261;-68
2023/09/27 02:28:31;;;;;;;11.53;7.17;;;;;;;13.51;70.44;96710.34;4968192;28;20213;-68
2023/09/27 02:30:58;;;;;;;12.03;7.30;;;;;;;13.49;70.05;96716.63;4967820;28;20181;-67
2023/09/27 02:33:25;;;;;;;8.93;6.23;;;;;;;13.55;69.67;96711.88;4968079;28;20185;-68
2023/09/27 02:35:50;;;;;;;9.03;6.43;;;;;;;13.55;69.32;96706.59;4967732;28;20432;-67
2023/09/27 02:38:15;;;;;;;6.90;6.20;;;;;;;13.57;69.34;96709.16;4967906;28;20433;-68
2023/09/27 02:40:42;;;;;;;7.93;6.10;;;;;;;13.53;68.89;96713.72;4968175;28;20671;-68
2023/09/27 02:43:07;;;;;;;7.47;6.67;;;;;;;13.51;68.79;96717.38;4968033;28;20271;-68
2023/09/27 02:45:34;;;;;;;10.00;6.40;;;;;;;13.53;68.48;96715.50;4967625;28;20824;-69
2023/09/27 02:48:01;;;;;;;6.97;6.10;;;;;;;13.42;68.97;96712.59;4967610;28;20756;-66
2023/09/27 02:50:26;;;;;;;8.03;6.57;;;;;;;13.45;68.64;96712.44;4967979;28;20425;-66
2023/09/27 02:52:51;;;;;;;7.57;6.80;;;;;;;13.56;68.16;96725.94;4967969;28;20421;-67
2023/09/27 02:55:17;;;;;;;12.63;7.73;;;;;;;13.48;67.68;96723.66;4967894;28;20232;-68
2023/09/27 02:57:42;;;;;;;11.17;6.60;;;;;;;13.29;68.21;96720.25;4967537;28;20205;-68
2023/09/27 03:00:08;;;;;;;9.10;7.40;;;;;;;13.40;67.59;96719.72;4966711;28;20661;-68
2023/09/27 03:02:34;;;;;;;8.13;7.07;;;;;;;13.23;67.93;96708.19;4967476;28;20173;-68
2023/09/27 03:05:00;;;;;;;13.20;8.10;;;;;;;13.23;68.16;96718.75;4980534;28;20192;-68
2023/09/27 03:07:25;;;;;;;9.27;6.90;;;;;;;13.38;68.33;96718.94;4986330;28;20420;-69
2023/09/27 03:09:50;;;;;;;11.37;7.30;;;;;;;13.38;68.40;96716.31;4986971;28;20859;-68
2023/09/27 03:12:16;;;;;;;8.83;8.03;;;;;;;13.36;68.32;96715.53;4986904;28;20255;-68
2023/09/27 03:14:41;;;;;;;7.77;7.10;;;;;;;13.25;68.56;96708.97;4986553;28;20204;-68
2023/09/27 03:17:07;;;;;;;9.23;8.07;;;;;;;13.33;67.67;96714.75;4986515;28;20280;-66
2023/09/27 03:19:32;;;;;;;7.63;6.63;;;;;;;13.34;68.13;96707.69;4986849;28;20718;-68
2023/09/27 03:21:58;;;;;;;16.30;12.50;;;;;;;13.26;68.29;96710.66;4987040;28;20180;-68
2023/09/27 03:24:25;;;;;;;15.13;12.83;;;;;;;13.27;68.18;96704.50;4986824;28;20199;-68
2023/09/27 03:26:51;;;;;;;30.00;21.57;;;;;;;13.23;68.06;96710.84;4986550;28;20188;-67
2023/09/27 03:29:16;;;;;;;14.13;8.70;;;;;;;13.14;69.46;96712.13;4986368;28;20467;-67
2023/09/27 03:31:41;;;;;;;18.13;7.67;;;;;;;13.05;69.11;96711.72;4986848;28;20176;-67
2023/09/27 03:34:07;;;;;;;9.27;6.93;;;;;;;13.13;69.78;96715.72;4986916;28;20571;-68
2023/09/27 03:36:34;;;;;;;9.43;6.73;;;;;;;13.07;70.00;96716.00;4986474;28;20187;-69
2023/09/27 03:38:59;;;;;;;18.73;6.10;;;;;;;13.02;70.41;96715.38;4987661;28;20256;-67
2023/09/27 03:41:24;;;;;;;10.30;6.50;;;;;;;13.08;70.52;96716.84;4986548;28;20416;-69
2023/09/27 03:43:50;;;;;;;10.90;5.57;;;;;;;13.14;69.32;96717.41;4986862;28;20220;-68
2023/09/27 03:46:16;;;;;;;7.20;6.23;;;;;;;13.10;69.96;96722.91;4986556;28;20239;-69
2023/09/27 03:48:41;;;;;;;6.87;6.17;;;;;;;13.02;69.88;96725.91;4986519;28;20213;-66
2023/09/27 03:51:06;;;;;;;9.70;6.20;;;;;;;12.96;70.03;96726.19;4986547;28;20177;-67
2023/09/27 03:53:33;;;;;;;7.43;6.10;;;;;;;12.92;70.13;96729.88;4986693;28;20258;-67
2023/09/27 03:55:59;;;;;;;6.70;6.10;;;;;;;12.82;69.74;96721.56;4986294;28;20184;-69
2023/09/27 03:58:24;;;;;;;6.93;6.23;;;;;;;12.90;70.14;96723.88;4986050;28;20792;-68
2023/09/27 04:00:49;;;;;;;6.97;6.37;;;;;;;12.86;69.88;96720.50;4986186;28;20222;-69
2023/09/27 04:03:20;;;;;;;7.90;6.30;;;;;;;12.61;70.64;96727.88;4986571;28;20289;-67
2023/09/27 04:05:45;;;;;;;7.67;5.70;;;;;;;12.75;70.28;96725.44;4966870;28;20189;-68
2023/09/27 04:08:11;;;;;;;6.83;6.13;;;;;;;12.87;69.60;96724.88;4966869;28;21270;-70
2023/09/27 04:10:36;;;;;;;7.20;6.40;;;;;;;12.84;69.46;96721.53;4968291;28;20189;-69
2023/09/27 04:13:02;;;;;;;8.70;6.50;;;;;;;12.93;69.18;96713.19;4965659;28;20827;-67
2023/09/27 04:15:27;;;;;;;9.93;6.67;;;;;;;12.80;69.72;96707.63;4969086;28;20184;-68
2023/09/27 04:17:53;;;;;;;8.90;7.63;;;;;;;12.62;70.04;96713.78;4970079;28;20220;-69
2023/09/27 04:20:19;;;;;;;7.73;6.80;;;;;;;12.64;70.12;96723.31;4970443;28;20220;-67
2023/09/27 04:22:47;;;;;;;7.50;6.23;;;;;;;12.77;70.17;96720.94;4970376;28;20688;-67
2023/09/27 04:25:14;;;;;;;14.77;7.80;;;;;;;12.63;69.90;96713.69;4970223;28;20280;-68
2023/09/27 04:27:41;;;;;;;7.30;6.53;;;;;;;12.55;70.33;96720.28;4969713;28;20488;-67
2023/09/27 04:30:12;;;;;;;7.57;6.17;;;;;;;12.59;69.80;96713.91;4969848;28;20408;-67
2023/09/27 04:32:44;;;;;;;7.00;6.30;;;;;;;12.55;70.33;96715.00;4970148;28;20466;-68
2023/09/27 04:35:10;;;;;;;8.80;6.43;;;;;;;12.48;70.16;96715.28;4970118;28;20449;-69
2023/09/27 04:37:38;;;;;;;10.67;8.13;;;;;;;12.13;70.65;96708.16;4969729;28;20494;-69
2023/09/27 04:40:11;;;;;;;12.43;8.47;;;;;;;12.00;71.98;96713.97;4970094;28;20194;-68
2023/09/27 04:42:36;;;;;;;12.10;9.07;;;;;;;11.88;72.06;96722.38;4969863;28;20413;-67
2023/09/27 04:45:03;;;;;;;11.20;7.70;;;;;;;12.11;71.17;96728.41;4969548;28;20428;-69
2023/09/27 04:47:28;;;;;;;17.83;8.50;;;;;;;12.20;71.55;96723.56;4968785;28;20209;-68
2023/09/27 04:49:54;;;;;;;14.67;8.73;;;;;;;12.28;71.00;96725.84;4969618;28;20487;-69
2023/09/27 04:52:20;;;;;;;12.43;7.40;;;;;;;12.29;71.01;96732.84;4969523;28;20166;-69
2023/09/27 04:54:46;;;;;;;10.87;7.87;;;;;;;12.47;70.11;96741.66;4969481;28;20405;-72
2023/09/27 04:57:12;;;;;;;12.00;7.97;;;;;;;12.48;70.04;96738.13;4971183;28;20448;-72
2023/09/27 04:59:38;;;;;;;14.97;7.13;;;;;;;12.34;71.10;96730.84;4972343;28;21002;-74
2023/09/27 05:02:03;;;;;;;11.83;7.50;;;;;;;12.33;70.58;96736.16;4978356;28;20416;-72
2023/09/27 05:04:29;;;;;;;13.30;7.93;;;;;;;12.37;70.22;96741.22;4978876;28;20192;-73
2023/09/27 05:06:54;;;;;;;23.07;8.47;;;;;;;12.43;70.36;96740.13;4980601;28;20181;-76
2023/09/27 05:09:19;;;;;;;13.13;8.23;;;;;;;12.29;70.59;96751.25;4983048;28;20203;-72
2023/09/27 05:11:46;;;;;;;13.17;6.80;;;;;;;12.45;70.27;96760.19;4977558;28;20176;-73
2023/09/27 05:14:13;;;;;;;15.33;8.33;;;;;;;12.32;70.15;96759.00;4977482;28;20173;-72
2023/09/27 05:16:38;;;;;;;10.87;7.60;;;;;;;12.28;70.88;96771.47;4971678;28;20928;-73
2023/09/27 05:19:03;;;;;;;15.73;8.00;;;;;;;12.35;70.48;96777.28;4970713;28;20452;-71
2023/09/27 05:21:29;;;;;;;25.50;8.93;;;;;;;12.40;70.61;96783.22;4969084;28;20353;-72
2023/09/27 05:23:54;;;;;;;24.80;9.60;;;;;;;12.36;70.10;96781.66;4970059;28;20177;-72
2023/09/27 05:26:20;;;;;;;21.53;10.37;;;;;;;12.35;70.44;96779.91;4970030;28;20240;-72
2023/09/27 05:28:45;;;;;;;11.33;7.80;;;;;;;12.31;70.21;96770.47;4968765;28;20308;-72
2023/09/27 05:31:11;;;;;;;19.13;8.70;;;;;;;12.37;70.34;96777.22;4969667;28;20170;-72
2023/09/27 05:33:37;;;;;;;13.20;9.30;;;;;;;12.27;69.93;96777.63;4970121;28;20905;-74
2023/09/27 05:36:02;;;;;;;13.87;8.87;;;;;;;12.35;70.35;96773.81;4967641;28;20200;-70
2023/09/27 05:38:28;;;;;;;12.90;7.70;;;;;;;12.41;70.03;96774.38;4968809;28;20834;-73
2023/09/27 05:40:53;;;;;;;11.27;8.40;;;;;;;12.54;69.49;96769.41;4968273;28;20204;-74
2023/09/27 05:43:19;;;;;;;71.17;16.80;;;;;;;12.82;68.89;96774.25;4968232;28;20684;-70
2023/09/27 05:45:45;;;;;;;41.93;12.90;;;;;;;12.79;68.17;96773.56;4967510;28;20204;-71
2023/09/27 05:48:14;;;;;;;26.43;10.10;;;;;;;13.58;66.47;96782.06;4968133;28;20871;-74
2023/09/27 05:50:44;;;;;;;14.00;7.37;;;;;;;14.38;63.13;96785.88;4967725;28;20170;-73
2023/09/27 05:53:11;;;;;;;7.00;6.37;;;;;;;14.96;60.81;96777.50;4967601;28;20932;-70
2023/09/27 05:55:36;;;;;;;13.07;8.17;;;;;;;15.33;59.68;96775.44;4967322;28;20420;-72
2023/09/27 05:58:02;;;;;;;11.00;8.40;;;;;;;15.45;59.14;96779.16;4967393;28;20829;-72
2023/09/27 06:00:32;;;;;;;8.80;7.50;;;;;;;15.11;59.55;96774.94;4967740;28;20805;-71
2023/09/27 06:02:59;;;;;;;11.87;6.60;;;;;;;15.07;60.21;96789.25;4967885;28;20591;-72
2023/09/27 06:05:25;;;;;;;9.73;7.43;;;;;;;15.02;60.03;96787.72;4967400;28;20451;-71
2023/09/27 06:07:52;;;;;;;17.20;8.63;;;;;;;14.73;61.04;96794.59;4967881;28;20473;-73
2023/09/27 06:10:17;;;;;;;11.53;8.37;;;;;;;14.26;62.22;96791.81;4967420;28;20174;-72
2023/09/27 06:12:43;;;;;;;9.97;6.87;;;;;;;14.45;62.08;96792.53;4968282;28;20493;-74
2023/09/27 06:15:09;;;;;;;10.40;7.73;;;;;;;15.28;59.93;96789.84;4967785;28;20232;-73
2023/09/27 06:17:35;;;;;;;8.10;7.00;;;;;;;15.20;59.38;96792.91;4967019;28;20186;-74
2023/09/27 06:20:05;;;;;;;9.50;6.63;;;;;;;15.14;59.96;96801.19;4967095;28;20431;-75
2023/09/27 06:22:30;;;;;;;13.80;7.67;;;;;;;16.06;57.59;96795.91;4966807;28;20177;-74
2023/09/27 06:24:56;;;;;;;10.80;7.87;;;;;;;16.42;55.76;96792.03;4966069;28;20416;-75
2023/09/27 06:27:22;;;;;;;20.87;8.57;;;;;;;16.35;56.42;96793.34;4965657;28;20181;-73
2023/09/27 06:29:47;;;;;;;18.17;9.10;;;;;;;16.76;54.78;96795.22;4965966;28;20213;-73
2023/09/27 06:32:16;;;;;;;8.70;7.87;;;;;;;16.64;55.05;96792.38;4965746;28;20260;-73
2023/09/27 06:34:43;;;;;;;8.60;7.10;;;;;;;16.77;54.81;96803.09;4966268;28;20209;-73
2023/09/27 06:37:08;;;;;;;7.27;6.57;;;;;;;16.82;55.01;96805.47;4966223;28;20454;-74
2023/09/27 06:39:34;;;;;;;8.43;7.00;;;;;;;17.08;54.29;96804.69;4965891;28;20495;-72
2023/09/27 06:41:59;;;;;;;9.27;7.73;;;;;;;16.81;54.66;96798.47;4965848;28;20180;-73
2023/09/27 06:44:28;;;;;;;10.13;7.77;;;;;;;17.13;54.03;96809.72;4966109;28;20169;-73
2023/09/27 06:46:54;;;;;;;13.20;8.90;;;;;;;18.34;50.99;96803.53;4966451;28;20169;-74
2023/09/27 06:49:19;;;;;;;13.43;8.80;;;;;;;19.12;48.89;96799.88;4966313;28;20460;-73
2023/09/27 06:51:45;;;;;;;11.67;8.83;;;;;;;19.72;47.25;96814.16;4966722;28;20427;-74
2023/09/27 06:54:10;;;;;;;24.83;10.93;;;;;;;19.80;46.98;96806.47;4966704;28;20169;-74
2023/09/27 06:56:36;;;;;;;23.07;9.20;;;;;;;19.90;46.41;96799.50;4965882;28;20178;-75
2023/09/27 06:59:01;;;;;;;27.70;9.90;;;;;;;20.13;46.03;96802.25;4965633;28;20236;-74
2023/09/27 07:01:26;;;;;;;12.60;7.83;;;;;;;20.29;45.61;96797.41;4966531;28;20169;-73
2023/09/27 07:03:52;;;;;;;9.13;8.23;;;;;;;19.91;46.60;96797.66;4966429;28;20807;-73
2023/09/27 07:06:18;;;;;;;14.67;9.73;;;;;;;19.70;47.20;96794.78;4966110;28;20177;-74
2023/09/27 07:08:46;;;;;;;9.30;7.47;;;;;;;19.39;48.08;96797.88;4964874;28;20327;-71
2023/09/27 07:11:13;;;;;;;9.80;8.23;;;;;;;20.20;46.50;96787.50;4965504;28;20412;-78
2023/09/27 07:13:38;;;;;;;13.00;7.40;;;;;;;20.56;45.48;96793.63;4967690;28;20421;-72
2023/09/27 07:16:21;;;;;;;17.07;8.97;;;;;;;20.61;45.54;96796.78;4969185;28;20413;-75
2023/09/27 07:18:50;;;;;;;10.77;8.20;;;;;;;20.78;45.19;96806.13;4967816;28;20194;-72
2023/09/27 07:21:17;;;;;;;11.70;8.20;;;;;;;20.93;44.74;96804.94;4967989;28;20479;-74
2023/09/27 07:23:42;;;;;;;9.93;7.77;;;;;;;21.05;44.37;96795.13;4968018;28;20513;-73
2023/09/27 07:26:09;;;;;;;10.87;8.73;;;;;;;21.07;44.60;96801.16;4967833;28;20853;-74
2023/09/27 07:28:34;;;;;;;10.33;9.33;;;;;;;19.90;47.75;96806.63;4967823;28;20213;-72
2023/09/27 07:31:00;;;;;;;11.50;8.10;;;;;;;20.09;47.11;96797.13;4968488;28;20433;-77
2023/09/27 07:33:25;;;;;;;10.47;8.30;;;;;;;20.23;47.38;96785.41;4968386;28;20736;-73
2023/09/27 07:35:52;;;;;;;15.17;8.97;;;;;;;20.88;45.92;96791.09;4968103;28;20332;-72
2023/09/27 07:38:18;;;;;;;12.83;8.10;;;;;;;21.26;45.13;96800.53;4968393;28;20235;-74
2023/09/27 07:40:47;;;;;;;8.67;7.80;;;;;;;21.08;45.52;96789.53;4968654;28;20837;-73
2023/09/27 07:43:14;;;;;;;12.20;8.07;;;;;;;21.25;44.84;96786.34;4968452;28;20409;-72
2023/09/27 07:45:42;;;;;;;8.80;8.00;;;;;;;21.48;44.49;96778.31;4971785;28;20413;-74
2023/09/27 07:48:08;;;;;;;9.20;8.33;;;;;;;21.83;43.76;96777.22;4974861;28;20547;-72
2023/09/27 07:50:37;;;;;;;8.80;7.90;;;;;;;22.03;43.37;96778.22;4974568;28;20467;-72
2023/09/27 07:53:03;;;;;;;9.47;8.47;;;;;;;22.03;43.57;96780.91;4974061;28;20511;-73
2023/09/27 07:55:32;;;;;;;8.93;7.27;;;;;;;22.21;43.16;96767.84;4974748;28;20412;-74
2023/09/27 07:57:58;;;;;;;9.47;7.77;;;;;;;22.40;42.73;96768.81;4974363;28;20441;-73
2023/09/27 08:00:30;;;;;;;9.73;8.80;;;;;;;22.48;42.79;96781.50;4974675;28;20413;-72
2023/09/27 08:02:57;;;;;;;8.73;7.83;;;;;;;22.71;42.35;96773.34;4975637;28;20412;-73
2023/09/27 08:05:24;;;;;;;9.77;8.80;;;;;;;21.83;44.20;96769.19;4975490;28;21244;-74
2023/09/27 08:07:50;;;;;;;8.97;8.17;;;;;;;21.46;45.51;96764.25;4974232;28;20432;-72
2023/09/27 08:10:17;;;;;;;9.27;8.03;;;;;;;21.89;44.70;96763.34;4967445;28;20427;-74
2023/09/27 08:12:43;;;;;;;12.60;8.50;;;;;;;22.09;44.54;96762.53;4973884;28;20421;-72
2023/09/27 08:15:10;;;;;;;10.90;7.20;;;;;;;21.89;45.18;96763.34;4974339;28;20427;-73
2023/09/27 08:17:35;;;;;;;13.20;7.00;;;;;;;22.18;44.92;96759.06;4973890;28;20177;-71
2023/09/27 08:20:11;;;;;;;16.10;8.00;;;;;;;22.48;44.28;96751.25;4974258;28;20416;-72
2023/09/27 08:22:39;;;;;;;9.20;7.77;;;;;;;22.91;43.26;96750.16;4974525;28;20184;-73
2023/09/27 08:25:06;;;;;;;8.00;7.20;;;;;;;23.23;42.99;96756.22;4974499;28;20428;-72
2023/09/27 08:27:32;;;;;;;9.30;8.27;;;;;;;23.39;42.79;96754.88;4973754;28;20436;-73
2023/09/27 08:29:58;;;;;;;8.73;7.90;;;;;;;23.46;42.81;96756.00;4974340;28;20507;-72
2023/09/27 08:32:23;;;;;;;14.30;7.17;;;;;;;23.64;42.62;96753.47;4974676;28;20531;-72
2023/09/27 08:34:48;;;;;;;8.30;7.60;;;;;;;23.45;43.51;96751.63;4974581;28;20610;-73
2023/09/27 08:37:14;;;;;;;10.93;7.13;;;;;;;23.75;42.46;96747.19;4974510;28;20212;-72
2023/09/27 08:39:39;;;;;;;8.67;7.73;;;;;;;23.61;42.80;96751.91;4974726;28;20209;-73
2023/09/27 08:42:05;;;;;;;12.10;11.00;;;;;;;23.40;43.49;96754.72;4974513;28;20205;-72
2023/09/27 08:44:32;;;;;;;9.80;8.87;;;;;;;23.57;43.58;96753.19;4974815;28;20174;-74
2023/09/27 08:46:58;;;;;;;10.20;9.30;;;;;;;23.79;43.13;96749.44;4973776;28;20181;-73
2023/09/27 08:49:25;;;;;;;9.40;8.13;;;;;;;23.98;42.88;96753.09;4974561;28;20471;-73
2023/09/27 08:51:52;;;;;;;9.30;8.43;;;;;;;23.30;44.28;96758.38;4973908;28;20181;-72
2023/09/27 08:54:20;;;;;;;10.27;9.20;;;;;;;22.79;45.06;96758.28;4974764;28;21137;-73
2023/09/27 08:56:50;;;;;;;12.20;11.00;;;;;;;22.75;45.87;96756.03;4972163;28;20496;-73
2023/09/27 08:59:18;;;;;;;12.67;9.83;;;;;;;22.64;46.57;96753.44;4971375;28;20975;-73
2023/09/27 09:01:44;;;;;;;10.87;9.63;;;;;;;23.12;45.36;96742.09;4970923;28;20419;-73
2023/09/27 09:04:11;;;;;;;15.80;10.60;;;;;;;23.76;44.41;96738.13;4971202;28;20754;-74
2023/09/27 09:06:37;;;;;;;12.73;9.67;;;;;;;24.14;43.53;96734.56;4970912;28;20428;-73
2023/09/27 09:09:13;;;;;;;12.13;9.40;;;;;;;24.33;43.22;96732.84;4971090;28;20468;-72
2023/09/27 09:11:54;;;;;;;16.57;11.43;;;;;;;24.54;42.34;96744.25;4970756;28;20482;-71
2023/09/27 09:14:49;;;;;;;19.80;11.60;;;;;;;24.56;42.57;96731.56;4969095;28;20862;-72
2023/09/27 09:17:18;;;;;;;37.87;11.67;;;;;;;24.71;42.04;96735.47;4969820;28;20771;-70
2023/09/27 09:19:46;;;;;;;12.17;11.00;;;;;;;24.14;43.76;96729.22;4969487;28;20952;-72
2023/09/27 09:22:12;;;;;;;19.77;9.90;;;;;;;24.48;42.95;96718.03;4970004;28;20759;-72
2023/09/27 09:24:43;;;;;;;12.97;11.23;;;;;;;24.02;44.39;96716.97;4970208;28;20833;-72
2023/09/27 09:27:15;;;;;;;24.27;11.13;;;;;;;24.16;43.76;96718.34;4970186;28;20401;-73
2023/09/27 09:29:43;;;;;;;16.03;11.63;;;;;;;23.92;44.14;96726.84;4970177;28;20464;-72
2023/09/27 09:32:09;;;;;;;11.77;10.47;;;;;;;23.90;44.08;96718.09;4970237;28;20975;-74
2023/09/27 09:34:44;;;;;;;11.07;10.07;;;;;;;24.47;42.94;96719.88;4970297;28;20416;-72
2023/09/27 09:37:33;;;;;;;18.70;10.03;;;;;;;24.65;42.54;96706.53;4969776;28;20161;-72
2023/09/27 09:40:14;;;;;;;32.80;11.37;;;;;;;24.63;42.56;96703.13;4970229;28;20445;-72
2023/09/27 09:42:42;;;;;;;10.67;9.57;;;;;;;24.62;42.90;96693.41;4970381;28;20766;-74
2023/09/27 09:45:12;;;;;;;15.30;10.03;;;;;;;24.04;43.48;96690.84;4969781;28;20471;-72
2023/09/27 09:47:39;;;;;;;10.47;9.57;;;;;;;23.31;44.94;96693.09;4969571;28;20435;-72
2023/09/27 09:50:09;;;;;;;18.40;11.03;;;;;;;22.79;47.00;96688.72;4969717;28;20456;-74
2023/09/27 09:52:38;;;;;;;22.13;11.67;;;;;;;22.85;47.59;96686.50;4970739;28;21175;-73
2023/09/27 09:55:06;;;;;;;28.93;13.70;;;;;;;22.41;48.67;96690.25;4969499;28;20417;-72
2023/09/27 09:57:36;;;;;;;35.17;11.10;;;;;;;22.82;48.17;96688.47;4969378;28;20452;-73
2023/09/27 10:00:12;;;;;;;34.20;11.70;;;;;;;23.09;47.03;96684.34;4969434;28;20878;-72
2023/09/27 10:02:49;;;;;;;23.30;10.77;;;;;;;22.56;48.73;96688.09;4968993;28;20421;-70
2023/09/27 10:05:17;;;;;;;21.00;9.97;;;;;;;22.90;47.98;96685.09;4984264;28;20411;-73
2023/09/27 10:07:44;;;;;;;10.27;9.27;;;;;;;22.62;48.83;96686.69;4987463;28;20436;-71
2023/09/27 10:10:10;;;;;;;25.20;9.73;;;;;;;23.59;47.07;96686.06;4969487;28;20524;-72
2023/09/27 10:12:36;;;;;;;8.50;7.67;;;;;;;24.07;45.72;96677.16;4968850;28;20471;-72
2023/09/27 10:15:04;;;;;;;9.33;8.43;;;;;;;24.00;45.46;96673.34;4968808;28;20181;-74
2023/09/27 10:17:31;;;;;;;11.53;10.13;;;;;;;23.11;48.06;96677.00;4968158;28;20520;-72
2023/09/27 10:20:13;;;;;;;13.50;10.57;;;;;;;22.25;49.74;96679.22;4967986;28;20417;-72
2023/09/27 10:22:46;;;;;;;12.07;10.87;;;;;;;21.99;51.10;96681.41;4964950;28;20454;-73
2023/09/27 10:25:26;;;;;;;20.97;11.13;;;;;;;22.81;49.88;96661.84;4949464;28;20500;-73
2023/09/27 10:28:15;;;;;;;11.00;9.90;;;;;;;22.93;49.51;96658.06;4949462;28;20933;-70
2023/09/27 10:30:40;;;;;;;17.70;15.73;;;;;;;22.44;50.56;96665.09;4968391;28;20950;-71
2023/09/27 10:33:14;;;;;;;19.53;16.33;;;;;;;22.36;51.16;96643.53;4970577;28;20455;-72
2023/09/27 10:35:41;;;;;;;19.70;17.80;;;;;;;22.81;50.10;96646.63;4968418;28;20242;-74
2023/09/27 10:38:09;;;;;;;14.00;12.60;;;;;;;22.98;49.72;96634.44;4968011;28;20456;-72
2023/09/27 10:40:45;;;;;;;12.60;11.40;;;;;;;22.87;50.57;96636.34;4968221;28;20532;-71
2023/09/27 10:43:38;;;;;;;19.67;14.20;;;;;;;22.73;51.18;96621.56;4948949;28;20859;-72
2023/09/27 10:46:04;;;;;;;22.50;17.47;;;;;;;22.65;51.48;96618.72;4949174;28;20413;-72
2023/09/27 10:48:33;;;;;;;13.67;12.07;;;;;;;22.36;52.39;96612.28;4949346;28;20465;-73
2023/09/27 10:50:59;;;;;;;16.90;15.30;;;;;;;22.34;52.76;96608.88;4949170;28;20414;-73
2023/09/27 10:53:26;;;;;;;49.60;14.83;;;;;;;22.30;52.68;96604.81;4962384;28;20413;-71
2023/09/27 10:55:52;;;;;;;12.90;11.30;;;;;;;22.85;51.59;96596.38;4968862;28;20197;-72
2023/09/27 10:58:18;;;;;;;11.50;10.40;;;;;;;22.89;51.12;96597.78;4968271;28;20476;-74
2023/09/27 11:00:57;;;;;;;35.43;16.50;;;;;;;23.16;50.57;96588.25;4967023;28;20170;-72
2023/09/27 11:03:29;;;;;;;14.30;9.10;;;;;;;22.65;49.40;96597.31;4968200;28;20177;-73
2023/09/27 11:06:06;;;;;;;8.23;7.43;;;;;;;22.66;49.77;96586.47;4948951;28;20715;-72
2023/09/27 11:08:31;;;;;;;19.60;10.17;;;;;;;22.59;50.51;96574.63;4948869;28;21279;-72
2023/09/27 11:10:57;;;;;;;9.90;7.37;;;;;;;22.69;50.10;96569.31;4948985;29;20410;-73
2023/09/27 11:13:24;;;;;;;9.57;8.57;;;;;;;22.81;49.78;96579.72;4948897;28;20177;-73
2023/09/27 11:15:50;;;;;;;73.30;16.33;;;;;;;22.74;48.77;96580.44;4948679;28;20531;-73
2023/09/27 11:18:16;;;;;;;9.90;8.20;;;;;;;22.60;49.70;96577.16;4948661;28;20469;-72
2023/09/27 11:20:41;;;;;;;10.70;7.43;;;;;;;22.80;49.81;96558.47;4948142;28;20476;-72
2023/09/27 11:23:07;;;;;;;9.37;6.40;;;;;;;22.90;49.01;96567.34;4948747;28;20166;-73
2023/09/27 11:25:34;;;;;;;12.10;6.83;;;;;;;23.08;48.56;96555.97;4948296;28;21069;-72
2023/09/27 11:28:01;;;;;;;11.40;5.53;;;;;;;23.21;48.33;96551.19;4948539;28;20194;-72